createdAt,value
2024-03-16T00:01:43.307Z,5.10
2024-03-16T00:04:11.424Z,5.28
2024-03-16T00:06:38.975Z,6.18
2024-03-16T00:09:06.423Z,5.25
2024-03-16T00:11:33.937Z,5.78
2024-03-16T00:14:04.488Z,5.20
2024-03-16T00:19:00.824Z,6.22
2024-03-16T00:21:28.258Z,5.63
2024-03-16T00:23:55.811Z,5.18
2024-03-16T00:26:23.428Z,5.63
2024-03-16T00:28:52.166Z,5.25
2024-03-16T00:31:19.761Z,5.75
2024-03-16T00:33:47.828Z,5.32
2024-03-16T00:36:16.411Z,5.68
2024-03-16T00:38:45.199Z,8.65
2024-03-16T00:41:12.710Z,4.78
2024-03-16T00:43:40.094Z,5.00
2024-03-16T00:46:07.568Z,5.07
2024-03-16T00:48:35.068Z,6.20
2024-03-16T00:51:03.151Z,5.50
2024-03-16T00:53:30.769Z,5.70
2024-03-16T00:56:00.198Z,6.25
2024-03-16T00:58:28.609Z,4.75
2024-03-16T01:00:56.423Z,4.93
2024-03-16T01:03:23.963Z,6.25
2024-03-16T01:05:52.535Z,5.57
2024-03-16T01:08:19.922Z,4.80
2024-03-16T01:10:47.385Z,5.30
2024-03-16T01:13:14.860Z,5.07
2024-03-16T01:15:42.417Z,4.88
2024-03-16T01:18:09.870Z,6.35
2024-03-16T01:20:37.212Z,6.13
2024-03-16T01:23:06.116Z,6.07
2024-03-16T01:25:33.508Z,7.10
2024-03-16T01:28:01.048Z,4.35
2024-03-16T01:30:28.458Z,4.97
2024-03-16T01:32:55.947Z,5.13
2024-03-16T01:35:23.603Z,5.43
2024-03-16T01:37:52.217Z,5.25
2024-03-16T01:40:25.792Z,7.93
2024-03-16T01:42:53.931Z,7.82
2024-03-16T01:45:21.326Z,5.63
2024-03-16T01:47:48.790Z,5.93
2024-03-16T01:50:19.490Z,7.35
2024-03-16T01:52:47.925Z,6.10
2024-03-16T01:55:15.505Z,6.05
2024-03-16T01:57:43.002Z,6.07
2024-03-16T02:00:13.110Z,4.55
2024-03-16T02:02:41.115Z,5.88
2024-03-16T02:05:08.837Z,5.53
2024-03-16T02:07:36.221Z,7.13
2024-03-16T02:10:09.919Z,6.95
2024-03-16T02:12:37.645Z,5.97
2024-03-16T02:15:06.172Z,8.77
2024-03-16T02:17:33.942Z,7.28
2024-03-16T02:20:01.435Z,6.43
2024-03-16T02:22:28.745Z,6.18
2024-03-16T02:24:56.870Z,6.50
2024-03-16T02:27:25.402Z,7.47
2024-03-16T02:29:52.753Z,7.72
2024-03-16T02:32:20.163Z,9.63
2024-03-16T02:34:48.202Z,7.50
2024-03-16T02:37:15.862Z,7.20
2024-03-16T02:39:44.115Z,6.82
2024-03-16T02:42:11.487Z,7.70
2024-03-16T02:44:41.994Z,8.43
2024-03-16T02:49:38.633Z,8.00
2024-03-16T02:52:06.255Z,7.88
2024-03-16T02:54:34.563Z,7.05
2024-03-16T02:57:02.036Z,8.23
2024-03-16T02:59:30.970Z,9.25
2024-03-16T03:01:58.615Z,6.93
2024-03-16T03:04:26.131Z,7.15
2024-03-16T03:06:53.721Z,8.35
2024-03-16T03:09:21.529Z,8.23
2024-03-16T03:11:49.264Z,9.05
2024-03-16T03:14:16.656Z,7.18
2024-03-16T03:16:44.865Z,7.35
2024-03-16T03:19:12.442Z,8.75
2024-03-16T03:21:39.897Z,8.88
2024-03-16T03:24:07.331Z,11.45
2024-03-16T03:26:35.067Z,8.05
2024-03-16T03:29:02.977Z,7.90
2024-03-16T03:31:30.265Z,8.27
2024-03-16T03:33:57.627Z,7.68
2024-03-16T03:36:24.975Z,8.57
2024-03-16T03:38:52.350Z,7.15
2024-03-16T03:41:19.937Z,7.68
2024-03-16T03:43:58.911Z,8.10
2024-03-16T03:46:51.459Z,8.13
2024-03-16T03:49:30.970Z,8.23
2024-03-16T03:51:58.747Z,8.18
2024-03-16T03:54:26.350Z,8.55
2024-03-16T03:56:53.964Z,8.02
2024-03-16T03:59:23.117Z,8.77
2024-03-16T04:01:50.753Z,7.45
2024-03-16T04:04:18.217Z,8.77
2024-03-16T04:06:46.720Z,8.40
2024-03-16T04:09:14.542Z,9.57
2024-03-16T04:11:42.007Z,8.65
2024-03-16T04:14:09.508Z,10.27
2024-03-16T04:16:36.920Z,10.27
2024-03-16T04:19:05.122Z,9.10
2024-03-16T04:21:32.705Z,9.20
2024-03-16T04:24:00.183Z,8.77
2024-03-16T04:26:28.141Z,8.80
2024-03-16T04:28:55.589Z,8.90
2024-03-16T04:31:23.023Z,11.43
2024-03-16T04:33:52.395Z,8.43
2024-03-16T04:36:20.024Z,8.65
2024-03-16T04:38:47.325Z,10.35
2024-03-16T04:41:14.754Z,13.10
2024-03-16T04:43:42.475Z,8.95
2024-03-16T04:46:10.092Z,8.95
2024-03-16T04:48:37.616Z,8.82
2024-03-16T04:51:05.228Z,10.50
2024-03-16T04:53:32.624Z,10.35
2024-03-16T04:56:00.024Z,11.13
2024-03-16T04:58:27.576Z,12.15
2024-03-16T05:00:55.187Z,12.60
2024-03-16T05:03:23.489Z,11.10
2024-03-16T05:05:52.731Z,13.02
2024-03-16T05:08:20.159Z,11.50
2024-03-16T05:10:51.952Z,11.75
2024-03-16T05:13:19.401Z,10.75
2024-03-16T05:15:46.951Z,12.38
2024-03-16T05:18:15.663Z,14.95
2024-03-16T05:20:43.266Z,11.15
2024-03-16T05:23:10.766Z,12.38
2024-03-16T05:25:40.937Z,13.77
2024-03-16T05:28:08.440Z,10.82
2024-03-16T05:30:36.251Z,10.13
2024-03-16T05:33:03.841Z,11.50
2024-03-16T05:35:31.202Z,11.82
2024-03-16T05:37:58.620Z,15.52
2024-03-16T05:40:26.179Z,11.82
2024-03-16T05:42:53.702Z,10.43
2024-03-16T05:45:22.096Z,11.82
2024-03-16T05:47:49.611Z,11.02
2024-03-16T05:50:17.000Z,9.77
2024-03-16T06:02:34.606Z,12.63
2024-03-16T06:05:02.409Z,9.40
2024-03-16T06:07:29.797Z,11.07
2024-03-16T06:09:57.550Z,9.20
2024-03-16T06:12:32.009Z,9.82
2024-03-16T06:14:59.865Z,10.45
2024-03-16T06:17:28.018Z,9.13
2024-03-16T06:19:55.725Z,10.82
2024-03-16T06:22:24.062Z,10.55
2024-03-16T06:24:53.125Z,11.30
2024-03-16T06:27:23.705Z,8.75
2024-03-16T06:29:56.308Z,8.50
2024-03-16T06:32:26.948Z,10.43
2024-03-16T06:34:54.932Z,8.98
2024-03-16T06:37:22.567Z,9.55
2024-03-16T06:39:50.466Z,9.77
2024-03-16T06:42:18.638Z,12.07
2024-03-16T06:44:46.062Z,12.00
2024-03-16T06:47:13.738Z,10.15
2024-03-16T06:49:42.056Z,10.93
2024-03-16T06:52:10.753Z,8.45
2024-03-16T06:54:38.170Z,9.55
2024-03-16T06:57:05.744Z,9.55
2024-03-16T06:59:33.106Z,8.30
2024-03-16T07:02:00.705Z,8.48
2024-03-16T07:04:31.438Z,8.68
2024-03-16T07:06:59.032Z,8.75
2024-03-16T07:09:26.620Z,9.52
2024-03-16T07:11:54.959Z,12.73
2024-03-16T07:14:22.537Z,9.23
2024-03-16T07:16:50.102Z,9.40
2024-03-16T07:19:19.420Z,7.22
2024-03-16T07:21:47.091Z,9.93
2024-03-16T07:24:16.354Z,8.45
2024-03-16T07:26:44.196Z,11.93
2024-03-16T07:29:11.798Z,9.55
2024-03-16T07:31:39.253Z,7.90
2024-03-16T07:34:06.707Z,7.97
2024-03-16T07:36:34.741Z,8.40
2024-03-16T07:39:02.266Z,10.48
2024-03-16T07:41:29.704Z,10.75
2024-03-16T07:43:57.002Z,8.45
2024-03-16T07:46:24.959Z,8.35
2024-03-16T07:48:52.500Z,10.25
2024-03-16T07:51:21.076Z,8.65
2024-03-16T07:53:48.489Z,9.60
2024-03-16T07:56:16.474Z,9.75
2024-03-16T07:58:43.814Z,7.90
2024-03-16T08:01:11.549Z,7.28
2024-03-16T08:03:39.035Z,8.15
2024-03-16T08:06:08.778Z,6.50
2024-03-16T08:08:36.549Z,9.52
2024-03-16T08:11:05.374Z,8.73
2024-03-16T08:13:33.215Z,8.23
2024-03-16T08:16:00.830Z,6.78
2024-03-16T08:18:28.516Z,7.18
2024-03-16T08:20:58.764Z,9.43
2024-03-16T08:23:26.284Z,9.02
2024-03-16T08:25:53.747Z,7.70
2024-03-16T08:28:21.247Z,7.03
2024-03-16T08:30:49.233Z,8.57
2024-03-16T08:33:17.156Z,7.20
2024-03-16T08:35:45.934Z,9.00
2024-03-16T08:38:13.572Z,7.95
2024-03-16T08:40:41.002Z,6.55
2024-03-16T08:43:08.712Z,7.43
2024-03-16T08:45:39.061Z,6.90
2024-03-16T08:48:07.450Z,7.22
2024-03-16T08:50:36.069Z,8.00
2024-03-16T08:53:03.460Z,7.60
2024-03-16T08:55:30.894Z,7.75
2024-03-16T08:57:58.315Z,7.43
2024-03-16T09:00:26.263Z,8.05
2024-03-16T09:02:53.667Z,7.15
2024-03-16T09:05:22.306Z,6.63
2024-03-16T09:07:49.696Z,7.35
2024-03-16T09:10:18.588Z,6.70
2024-03-16T09:12:48.092Z,8.70
2024-03-16T09:15:16.933Z,6.70
2024-03-16T09:17:44.545Z,9.70
2024-03-16T09:20:12.592Z,8.18
2024-03-16T09:22:40.205Z,7.93
2024-03-16T09:25:09.368Z,8.38
2024-03-16T09:27:37.130Z,7.10
2024-03-16T09:30:12.548Z,6.43
2024-03-16T09:32:40.866Z,6.40
2024-03-16T09:35:11.600Z,6.00
2024-03-16T09:37:39.423Z,5.68
2024-03-16T09:40:12.495Z,7.28
2024-03-16T09:42:40.373Z,6.78
